createdAt,value
2022-11-23T00:00:08.325Z,93.13
2022-11-23T00:01:08.332Z,92.86
2022-11-23T00:02:08.356Z,93.03
2022-11-23T00:03:08.322Z,92.66
2022-11-23T00:04:08.277Z,93.28
2022-11-23T00:05:08.266Z,93.54
2022-11-23T00:06:08.295Z,93.49
2022-11-23T00:07:08.328Z,93.69
2022-11-23T00:08:08.233Z,93.38
2022-11-23T00:09:08.222Z,93.59
2022-11-23T00:10:08.219Z,93.49
2022-11-23T00:11:08.214Z,93.65
2022-11-23T00:12:08.187Z,93.65
2022-11-23T00:13:08.173Z,93.40
2022-11-23T00:14:08.164Z,93.24
2022-11-23T00:15:08.186Z,93.65
2022-11-23T00:16:08.146Z,93.44
2022-11-23T00:17:08.133Z,93.81
2022-11-23T00:18:08.123Z,93.19
2022-11-23T00:19:08.129Z,92.88
2022-11-23T00:20:08.102Z,92.68
2022-11-23T00:21:08.112Z,92.88
2022-11-23T00:22:08.093Z,93.40
2022-11-23T00:23:08.075Z,92.78
2022-11-23T00:24:08.059Z,92.74
2022-11-23T00:25:08.176Z,92.53
2022-11-23T00:26:08.050Z,91.91
2022-11-23T00:27:08.036Z,92.63
2022-11-23T00:28:08.012Z,92.88
2022-11-23T00:29:08.006Z,92.84
2022-11-23T00:30:08.002Z,92.99
2022-11-23T00:31:07.978Z,93.30
2022-11-23T00:32:07.986Z,92.68
2022-11-23T00:33:07.956Z,93.15
2022-11-23T00:34:07.951Z,93.30
2022-11-23T00:35:07.953Z,93.30
2022-11-23T00:36:07.935Z,93.81
2022-11-23T00:37:07.911Z,93.19
2022-11-23T00:38:07.916Z,93.19
2022-11-23T00:39:07.895Z,93.09
2022-11-23T00:40:07.902Z,93.19
2022-11-23T00:41:07.866Z,92.94
2022-11-23T00:42:07.855Z,92.68
2022-11-23T00:43:07.868Z,92.88
2022-11-23T00:44:07.853Z,93.09
2022-11-23T00:45:07.822Z,92.88
2022-11-23T00:46:07.827Z,92.78
2022-11-23T00:47:07.832Z,93.09
2022-11-23T00:48:07.791Z,92.68
2022-11-23T00:49:07.787Z,92.78
2022-11-23T00:50:07.764Z,93.05
2022-11-23T00:51:07.755Z,93.05
2022-11-23T00:52:07.748Z,93.19
2022-11-23T00:53:07.766Z,92.99
2022-11-23T00:54:07.737Z,93.15
2022-11-23T00:55:07.707Z,92.78
2022-11-23T00:56:07.730Z,93.09
2022-11-23T00:57:07.690Z,92.99
2022-11-23T00:58:07.695Z,93.30
2022-11-23T00:59:07.669Z,92.84
2022-11-23T01:00:07.652Z,92.78
2022-11-23T01:01:07.685Z,92.74
2022-11-23T01:02:07.643Z,92.78
2022-11-23T01:03:07.644Z,92.88
2022-11-23T01:04:07.612Z,92.78
2022-11-23T01:05:07.603Z,93.03
2022-11-23T01:06:07.584Z,93.30
2022-11-23T01:07:07.623Z,93.54
2022-11-23T01:08:07.560Z,93.19
2022-11-23T01:09:07.585Z,93.85
2022-11-23T01:10:07.565Z,93.30
2022-11-23T01:11:07.567Z,93.50
2022-11-23T01:12:07.525Z,93.54
2022-11-23T01:13:07.509Z,92.78
2022-11-23T01:14:07.495Z,93.66
2022-11-23T01:15:07.504Z,93.50
2022-11-23T01:16:07.473Z,93.09
2022-11-23T01:17:07.497Z,92.99
2022-11-23T01:18:07.448Z,92.99
2022-11-23T01:19:07.447Z,93.09
2022-11-23T01:20:07.436Z,93.09
2022-11-23T01:21:07.419Z,93.09
2022-11-23T01:22:07.430Z,92.72
2022-11-23T01:23:07.393Z,92.68
2022-11-23T01:24:07.386Z,93.03
2022-11-23T01:25:07.371Z,93.19
2022-11-23T01:26:07.386Z,93.34
2022-11-23T01:27:07.369Z,93.30
2022-11-23T01:28:07.344Z,93.44
2022-11-23T01:29:07.338Z,92.88
2022-11-23T01:30:07.324Z,93.13
2022-11-23T01:31:07.304Z,93.13
2022-11-23T01:32:07.317Z,93.09
2022-11-23T01:33:07.294Z,92.78
2022-11-23T01:34:07.274Z,92.99
2022-11-23T01:35:07.262Z,93.19
2022-11-23T01:36:07.263Z,93.54
2022-11-23T01:37:07.273Z,92.57
2022-11-23T01:38:07.262Z,92.78
2022-11-23T01:39:07.217Z,92.31
2022-11-23T01:40:07.208Z,92.72
2022-11-23T01:41:07.209Z,92.27
2022-11-23T01:42:07.228Z,92.82
2022-11-23T01:43:07.180Z,92.82
2022-11-23T01:44:07.163Z,92.78
2022-11-23T01:45:07.149Z,93.13
2022-11-23T01:46:07.143Z,92.82
2022-11-23T01:47:07.133Z,93.03
2022-11-23T01:48:07.139Z,92.93
2022-11-23T01:49:07.112Z,93.28
2022-11-23T01:50:07.105Z,93.90
2022-11-23T01:51:07.083Z,93.69
2022-11-23T01:52:07.101Z,93.59
2022-11-23T01:53:07.093Z,93.79
2022-11-23T01:54:07.050Z,93.69
2022-11-23T01:55:08.763Z,92.97
2022-11-23T01:56:07.029Z,93.18
2022-11-23T01:57:07.024Z,93.38
2022-11-23T01:58:07.053Z,93.59
2022-11-23T01:59:07.026Z,93.18
2022-11-23T02:00:06.998Z,93.49
2022-11-23T02:01:07.060Z,93.49
2022-11-23T02:02:06.965Z,93.90
2022-11-23T02:03:07.003Z,93.59
2022-11-23T02:04:06.963Z,93.49
2022-11-23T02:05:06.940Z,93.69
2022-11-23T02:06:06.943Z,93.69
2022-11-23T02:07:06.970Z,93.90
2022-11-23T02:08:06.900Z,93.69
2022-11-23T02:09:06.881Z,93.59
2022-11-23T02:10:06.905Z,93.07
2022-11-23T02:11:06.903Z,93.59
2022-11-23T02:12:06.887Z,93.90
2022-11-23T02:13:06.846Z,93.69
2022-11-23T02:14:06.848Z,93.59
2022-11-23T02:15:06.814Z,93.59
2022-11-23T02:16:06.812Z,93.90
2022-11-23T02:17:06.822Z,93.49
2022-11-23T02:18:06.784Z,93.49
2022-11-23T02:19:06.770Z,93.73
2022-11-23T02:20:06.773Z,93.59
2022-11-23T02:21:06.786Z,94.35
2022-11-23T02:22:06.746Z,94.35
2022-11-23T02:23:06.756Z,94.25
2022-11-23T02:24:06.728Z,94.25
2022-11-23T02:25:06.779Z,94.46
2022-11-23T02:26:06.699Z,94.42
2022-11-23T02:27:06.708Z,94.56
2022-11-23T02:28:06.711Z,94.46
2022-11-23T02:29:06.668Z,94.56
2022-11-23T02:30:06.672Z,94.35
2022-11-23T02:31:06.642Z,94.35
2022-11-23T02:32:06.683Z,94.35
2022-11-23T02:33:06.618Z,94.25
2022-11-23T02:34:06.606Z,94.35
2022-11-23T02:35:06.649Z,94.77
2022-11-23T02:36:06.677Z,94.46
2022-11-23T02:37:06.578Z,94.25
2022-11-23T02:38:06.579Z,94.46
2022-11-23T02:39:06.554Z,94.35
2022-11-23T02:40:06.546Z,94.46
2022-11-23T02:41:06.556Z,94.35
2022-11-23T02:42:06.534Z,94.35
2022-11-23T02:43:06.513Z,94.35
2022-11-23T02:44:06.517Z,94.29
2022-11-23T02:45:06.495Z,94.40
2022-11-23T02:46:06.492Z,93.98
2022-11-23T02:47:06.538Z,94.19
2022-11-23T02:48:06.470Z,95.02
2022-11-23T02:49:06.510Z,95.12
2022-11-23T02:50:06.442Z,94.77
2022-11-23T02:51:06.419Z,95.22
2022-11-23T02:52:06.432Z,95.32
2022-11-23T02:53:06.386Z,95.22
2022-11-23T02:54:06.399Z,95.07
2022-11-23T02:55:06.366Z,95.39
2022-11-23T02:56:06.377Z,94.97
2022-11-23T02:57:06.379Z,94.97
2022-11-23T02:58:06.398Z,94.87
2022-11-23T02:59:06.380Z,94.62
2022-11-23T03:00:06.322Z,94.77
2022-11-23T03:01:06.372Z,94.31
2022-11-23T03:02:06.351Z,94.10
2022-11-23T03:03:06.285Z,94.52
2022-11-23T03:04:06.331Z,94.04
2022-11-23T03:05:06.262Z,94.04
2022-11-23T03:06:06.254Z,94.31
2022-11-23T03:07:06.324Z,94.56
2022-11-23T03:08:06.292Z,94.35
2022-11-23T03:09:06.243Z,94.25
2022-11-23T03:10:06.241Z,94.31
2022-11-23T03:11:06.189Z,94.21
2022-11-23T03:12:06.188Z,94.42
2022-11-23T03:13:06.210Z,94.35
2022-11-23T03:14:06.190Z,94.15
2022-11-23T03:15:06.167Z,94.35
2022-11-23T03:16:06.148Z,94.25
2022-11-23T03:17:06.130Z,94.60
2022-11-23T03:18:06.141Z,94.35
2022-11-23T03:19:06.149Z,94.35
2022-11-23T03:20:06.090Z,94.25
2022-11-23T03:21:06.093Z,94.35
2022-11-23T03:22:06.074Z,94.31
2022-11-23T03:23:06.056Z,94.04
2022-11-23T03:24:06.078Z,93.63
2022-11-23T03:25:06.045Z,93.94
2022-11-23T03:26:11.302Z,93.94
2022-11-23T03:27:07.013Z,93.43
2022-11-23T03:28:06.007Z,93.73
2022-11-23T03:29:06.089Z,93.73
2022-11-23T03:30:06.039Z,93.63
2022-11-23T03:31:05.971Z,93.73
2022-11-23T03:32:05.967Z,94.15
2022-11-23T03:33:05.980Z,94.15
2022-11-23T03:34:05.948Z,94.29
2022-11-23T03:35:05.984Z,94.04
2022-11-23T03:36:05.939Z,94.35
2022-11-23T03:37:05.898Z,94.19
2022-11-23T03:38:05.899Z,94.40
2022-11-23T03:39:05.916Z,94.19
2022-11-23T03:40:05.868Z,94.40
2022-11-23T03:41:05.854Z,94.44
2022-11-23T03:42:05.905Z,94.13
2022-11-23T03:43:05.838Z,94.65
2022-11-23T03:44:05.831Z,94.54
2022-11-23T03:45:05.857Z,94.44
2022-11-23T03:46:05.807Z,94.44
2022-11-23T03:47:05.796Z,94.13
2022-11-23T03:48:05.777Z,94.75
2022-11-23T03:49:05.768Z,94.44
2022-11-23T03:50:05.794Z,94.75
2022-11-23T03:51:05.797Z,94.65
2022-11-23T03:52:05.735Z,94.90
2022-11-23T03:53:05.722Z,94.96
2022-11-23T03:54:05.811Z,94.85
2022-11-23T03:55:05.726Z,95.22
2022-11-23T03:56:05.787Z,94.29
2022-11-23T03:57:05.912Z,94.29
2022-11-23T03:58:05.782Z,94.29
2022-11-23T03:59:05.752Z,94.40
2022-11-23T04:00:05.754Z,94.50
2022-11-23T04:01:05.753Z,94.34
2022-11-23T04:02:06.078Z,94.44
2022-11-23T04:03:05.871Z,94.65
2022-11-23T04:04:05.754Z,94.54
2022-11-23T04:05:05.678Z,94.34
2022-11-23T04:06:05.762Z,94.13
2022-11-23T04:07:05.893Z,94.65
2022-11-23T04:08:05.634Z,94.69
2022-11-23T04:09:05.630Z,94.38
2022-11-23T04:10:05.827Z,94.38
2022-11-23T04:11:05.548Z,94.38
2022-11-23T04:12:05.514Z,94.69
2022-11-23T04:13:05.592Z,95.31
2022-11-23T04:14:05.601Z,94.90
2022-11-23T04:15:05.648Z,95.10
2022-11-23T04:16:05.595Z,95.83
2022-11-23T04:17:05.642Z,95.78
2022-11-23T04:18:05.452Z,95.48
2022-11-23T04:19:05.562Z,95.52
2022-11-23T04:20:05.505Z,95.17
2022-11-23T04:21:05.563Z,95.17
2022-11-23T04:22:05.468Z,95.37
2022-11-23T04:23:09.170Z,95.48
2022-11-23T04:24:06.418Z,95.37
2022-11-23T04:25:05.470Z,95.42
2022-11-23T04:26:05.550Z,95.37
2022-11-23T04:27:05.375Z,95.68
2022-11-23T04:28:05.594Z,95.48
2022-11-23T04:29:05.322Z,95.48
2022-11-23T04:30:05.386Z,95.37
2022-11-23T04:31:05.367Z,94.96
2022-11-23T04:32:05.290Z,94.92
2022-11-23T04:33:05.337Z,94.75
2022-11-23T04:34:05.297Z,94.34
2022-11-23T04:35:05.359Z,94.23
2022-11-23T04:36:05.244Z,94.65
2022-11-23T04:37:08.943Z,94.44
2022-11-23T04:38:06.241Z,94.44
2022-11-23T04:39:05.215Z,94.65
2022-11-23T04:40:05.434Z,95.06
2022-11-23T04:41:05.189Z,95.31
2022-11-23T04:42:05.314Z,94.96
2022-11-23T04:43:05.260Z,94.96
2022-11-23T04:44:05.164Z,95.10
2022-11-23T04:45:05.258Z,94.90
2022-11-23T04:46:05.190Z,95.17
2022-11-23T04:47:05.194Z,94.96
2022-11-23T04:48:05.196Z,95.57
2022-11-23T04:49:05.121Z,95.27
2022-11-23T04:50:05.124Z,95.37
2022-11-23T04:51:05.221Z,95.27
2022-11-23T04:52:05.098Z,95.17
2022-11-23T04:53:05.079Z,94.92
2022-11-23T04:54:05.071Z,95.22
2022-11-23T04:55:05.126Z,95.12
2022-11-23T04:56:05.101Z,95.07
2022-11-23T04:57:05.345Z,95.18
2022-11-23T04:58:05.011Z,94.56
2022-11-23T04:59:05.108Z,94.25
2022-11-23T05:00:05.224Z,94.31
2022-11-23T05:01:04.991Z,94.46
2022-11-23T05:02:04.968Z,94.77
2022-11-23T05:03:05.048Z,94.42
2022-11-23T05:04:04.991Z,93.94
2022-11-23T05:05:04.937Z,93.94
2022-11-23T05:06:04.976Z,94.10
2022-11-23T05:07:05.094Z,93.59
2022-11-23T05:08:05.039Z,93.49
2022-11-23T05:09:04.978Z,93.90
2022-11-23T05:10:04.914Z,93.79
2022-11-23T05:11:04.876Z,93.69
2022-11-23T05:12:04.847Z,93.49
2022-11-23T05:13:04.868Z,93.90
2022-11-23T05:14:04.984Z,93.69
2022-11-23T05:15:04.988Z,93.49
2022-11-23T05:16:04.810Z,93.90
2022-11-23T05:17:04.813Z,93.49
2022-11-23T05:18:04.786Z,93.79
2022-11-23T05:19:04.769Z,93.07
2022-11-23T05:20:04.761Z,93.38
2022-11-23T05:21:04.752Z,93.38
2022-11-23T05:22:04.760Z,93.59
2022-11-23T05:23:04.732Z,93.07
2022-11-23T05:24:04.713Z,93.49
2022-11-23T05:25:04.707Z,93.69
2022-11-23T05:26:04.704Z,93.38
2022-11-23T05:27:04.694Z,93.38
2022-11-23T05:28:30.015Z,93.38
2022-11-23T05:29:05.661Z,93.18
2022-11-23T05:30:04.646Z,93.28
2022-11-23T05:31:04.671Z,93.28
2022-11-23T05:32:04.627Z,93.18
2022-11-23T05:33:04.615Z,93.38
2022-11-23T05:34:04.626Z,93.28
2022-11-23T05:35:04.584Z,93.38
2022-11-23T05:36:04.605Z,93.69
2022-11-23T05:37:04.579Z,93.79
2022-11-23T05:38:04.559Z,93.69
2022-11-23T05:39:04.572Z,93.44
2022-11-23T05:40:04.538Z,93.49
2022-11-23T05:41:04.597Z,93.24
2022-11-23T05:42:04.527Z,93.34
2022-11-23T05:43:04.498Z,93.54
2022-11-23T05:44:04.484Z,93.75
2022-11-23T05:45:08.659Z,93.65
2022-11-23T05:46:05.492Z,93.65
2022-11-23T05:47:04.460Z,93.85
2022-11-23T05:48:04.459Z,93.13
2022-11-23T05:49:04.439Z,93.03
2022-11-23T05:50:04.451Z,93.34
2022-11-23T05:51:05.622Z,92.93
2022-11-23T05:52:04.425Z,93.54
2022-11-23T05:53:04.397Z,93.54
2022-11-23T05:54:04.401Z,93.44
2022-11-23T05:55:04.411Z,93.65
2022-11-23T05:56:04.361Z,93.54
2022-11-23T05:57:04.344Z,93.44
2022-11-23T05:58:04.387Z,93.65
2022-11-23T05:59:04.330Z,93.75
2022-11-23T06:00:04.306Z,93.65
2022-11-23T06:01:04.302Z,93.65
2022-11-23T06:02:04.283Z,93.65
2022-11-23T06:03:04.290Z,93.54
2022-11-23T06:04:04.358Z,93.75
2022-11-23T06:05:04.263Z,93.44
2022-11-23T06:06:04.241Z,93.54
2022-11-23T06:07:04.336Z,93.44
2022-11-23T06:08:04.252Z,93.44
2022-11-23T06:09:04.210Z,93.75
2022-11-23T06:10:04.204Z,94.06
2022-11-23T06:11:04.219Z,93.96
2022-11-23T06:12:04.175Z,93.54
2022-11-23T06:13:04.166Z,93.65
2022-11-23T06:14:04.582Z,93.71
2022-11-23T06:15:05.337Z,93.19
2022-11-23T06:16:04.131Z,93.65
2022-11-23T06:17:04.118Z,94.17
2022-11-23T06:18:04.139Z,93.19
2022-11-23T06:19:04.105Z,93.96
2022-11-23T06:20:04.081Z,94.06
2022-11-23T06:21:04.082Z,93.44
2022-11-23T06:22:04.076Z,93.24
2022-11-23T06:23:04.092Z,94.06
2022-11-23T06:24:04.047Z,94.32
2022-11-23T06:25:04.033Z,94.27
2022-11-23T06:26:04.021Z,94.27
2022-11-23T06:27:04.009Z,94.37
2022-11-23T06:28:04.049Z,94.06
2022-11-23T06:29:04.092Z,94.23
2022-11-23T06:30:04.007Z,94.17
2022-11-23T06:31:03.995Z,94.37
2022-11-23T06:32:03.988Z,94.37
2022-11-23T06:33:03.944Z,94.27
2022-11-23T06:34:03.929Z,94.17
2022-11-23T06:35:03.964Z,94.27
2022-11-23T06:36:03.932Z,94.17
2022-11-23T06:37:03.908Z,93.85
2022-11-23T06:38:03.888Z,94.06
2022-11-23T06:39:03.899Z,93.96
2022-11-23T06:40:03.864Z,93.96
2022-11-23T06:41:03.859Z,93.96
2022-11-23T06:42:23.872Z,94.47
2022-11-23T06:43:04.834Z,94.57
2022-11-23T06:44:03.822Z,94.17
2022-11-23T06:45:03.831Z,94.17
2022-11-23T06:46:03.815Z,94.17
2022-11-23T06:47:03.796Z,94.37
2022-11-23T06:48:03.777Z,93.96
2022-11-23T06:49:03.768Z,94.23
2022-11-23T06:50:03.777Z,94.27
2022-11-23T06:51:03.755Z,94.17
2022-11-23T06:52:03.740Z,94.57
2022-11-23T06:53:03.734Z,94.37
2022-11-23T06:54:03.712Z,94.27
2022-11-23T06:55:03.715Z,94.27
2022-11-23T06:56:03.711Z,94.27
2022-11-23T06:57:03.683Z,94.47
2022-11-23T06:58:03.700Z,94.12
2022-11-23T06:59:03.660Z,94.06
2022-11-23T07:00:03.639Z,94.12
2022-11-23T07:01:03.702Z,93.96
2022-11-23T07:02:03.633Z,94.27
2022-11-23T07:03:03.641Z,94.06
2022-11-23T07:04:03.604Z,94.27
2022-11-23T07:05:03.583Z,94.06
2022-11-23T07:06:03.571Z,94.23
2022-11-23T07:07:03.581Z,94.17
2022-11-23T07:08:03.563Z,94.43
2022-11-23T07:09:03.551Z,94.32
2022-11-23T07:10:06.982Z,94.17
2022-11-23T07:11:03.552Z,94.02
2022-11-23T07:12:03.503Z,94.02
2022-11-23T07:13:03.507Z,93.96
2022-11-23T07:14:03.486Z,93.50
2022-11-23T07:15:03.503Z,93.30
2022-11-23T07:16:03.469Z,93.44
2022-11-23T07:17:03.475Z,93.91
2022-11-23T07:18:03.482Z,93.60
2022-11-23T07:19:03.431Z,93.60
2022-11-23T07:20:03.440Z,93.81
2022-11-23T07:21:03.432Z,93.60
2022-11-23T07:22:03.405Z,93.40
2022-11-23T07:23:03.389Z,93.71
2022-11-23T07:24:03.397Z,93.50
2022-11-23T07:25:03.374Z,93.50
2022-11-23T07:26:03.374Z,93.40
2022-11-23T07:27:03.349Z,94.23
2022-11-23T07:28:03.332Z,94.23
2022-11-23T07:29:03.322Z,94.23
2022-11-23T07:30:03.342Z,94.23
2022-11-23T07:31:03.321Z,94.12
2022-11-23T07:32:03.296Z,94.02
2022-11-23T07:33:03.291Z,94.12
2022-11-23T07:34:03.356Z,94.23
2022-11-23T07:35:03.256Z,94.32
2022-11-23T07:36:03.262Z,94.23
2022-11-23T07:37:03.231Z,94.32
2022-11-23T07:38:03.219Z,94.18
2022-11-23T07:39:03.226Z,93.35
2022-11-23T07:40:03.471Z,93.66
2022-11-23T07:41:03.190Z,93.77
2022-11-23T07:42:30.862Z,93.46
2022-11-23T07:43:04.166Z,93.77
2022-11-23T07:44:03.157Z,93.56
2022-11-23T07:45:03.143Z,93.15
2022-11-23T07:46:03.128Z,93.25
2022-11-23T07:47:03.148Z,92.94
2022-11-23T07:48:03.113Z,93.05
2022-11-23T07:49:03.099Z,93.25
2022-11-23T07:50:03.100Z,92.94
2022-11-23T07:51:03.081Z,92.94
2022-11-23T07:52:03.061Z,93.25
2022-11-23T07:53:03.073Z,93.52
2022-11-23T07:54:03.052Z,93.11
2022-11-23T07:55:03.027Z,93.41
2022-11-23T07:56:03.022Z,93.25
2022-11-23T07:57:03.065Z,93.25
2022-11-23T07:58:03.010Z,93.35
2022-11-23T07:59:02.989Z,93.66
2022-11-23T08:00:02.971Z,93.31
2022-11-23T08:01:02.967Z,93.41
2022-11-23T08:02:03.056Z,93.77
2022-11-23T08:04:03.943Z,92.80
2022-11-23T08:05:02.961Z,93.11
2022-11-23T08:06:02.943Z,93.83
2022-11-23T08:07:02.896Z,93.52
2022-11-23T08:08:02.884Z,93.62
2022-11-23T08:09:02.922Z,93.11
2022-11-23T08:10:02.868Z,93.11
2022-11-23T08:11:02.875Z,93.41
2022-11-23T08:12:02.842Z,93.41
2022-11-23T08:13:02.837Z,93.73
2022-11-23T08:14:02.903Z,93.52
2022-11-23T08:15:02.812Z,93.52
2022-11-23T08:16:02.798Z,93.73
2022-11-23T08:17:02.803Z,93.41
2022-11-23T08:18:02.773Z,93.11
2022-11-23T08:19:02.788Z,93.21
2022-11-23T08:20:02.773Z,93.11
2022-11-23T08:21:02.767Z,92.65
2022-11-23T08:22:02.762Z,92.86
2022-11-23T08:23:02.726Z,93.37
2022-11-23T08:24:02.731Z,92.65
2022-11-23T08:25:02.712Z,92.55
2022-11-23T08:26:02.684Z,92.24
2022-11-23T08:27:02.676Z,92.50
2022-11-23T08:28:02.671Z,92.40
2022-11-23T08:29:02.693Z,92.82
2022-11-23T08:30:02.666Z,91.99
2022-11-23T08:31:02.632Z,92.36
2022-11-23T08:32:02.618Z,92.30
2022-11-23T08:33:02.615Z,91.68
2022-11-23T08:34:03.737Z,91.78
2022-11-23T08:35:02.593Z,91.53
2022-11-23T08:36:02.603Z,91.13
2022-11-23T08:37:02.564Z,91.33
2022-11-23T08:38:02.603Z,90.51
2022-11-23T08:39:02.543Z,90.61
2022-11-23T08:40:02.531Z,90.61
2022-11-23T08:41:02.540Z,90.81
2022-11-23T08:42:02.518Z,90.78
2022-11-23T08:43:02.497Z,90.36
2022-11-23T08:44:02.790Z,90.47
2022-11-23T08:45:02.486Z,90.88
2022-11-23T08:46:06.778Z,90.78
2022-11-23T08:47:03.449Z,90.06
2022-11-23T08:48:02.476Z,90.98
2022-11-23T08:49:02.428Z,90.36
2022-11-23T08:50:02.508Z,89.75
2022-11-23T08:51:02.418Z,90.67
2022-11-23T08:52:02.496Z,90.47
2022-11-23T08:53:02.398Z,90.47
2022-11-23T08:54:02.506Z,90.26
2022-11-23T08:55:02.396Z,90.22
2022-11-23T08:56:02.712Z,90.12
2022-11-23T08:57:02.354Z,90.36
2022-11-23T08:58:02.507Z,90.12
2022-11-23T08:59:02.320Z,90.16
2022-11-23T09:00:02.398Z,90.26
2022-11-23T09:01:02.321Z,90.22
2022-11-23T09:02:02.454Z,90.78
2022-11-23T09:03:02.270Z,90.47
2022-11-23T09:04:02.279Z,90.57
2022-11-23T09:05:02.277Z,90.78
2022-11-23T09:06:02.243Z,90.06
2022-11-23T09:07:02.225Z,90.26
2022-11-23T09:08:02.243Z,90.36
2022-11-23T09:09:02.211Z,90.47
2022-11-23T09:10:02.224Z,90.26
2022-11-23T09:11:02.231Z,90.36
2022-11-23T09:12:02.175Z,90.47
2022-11-23T09:13:02.163Z,90.57
2022-11-23T09:14:02.164Z,90.26
2022-11-23T09:15:02.147Z,90.47
2022-11-23T09:16:02.133Z,90.36
2022-11-23T09:17:02.148Z,90.67
2022-11-23T09:18:02.111Z,90.06
2022-11-23T09:19:02.093Z,90.73
2022-11-23T09:20:02.087Z,90.01
2022-11-23T09:21:02.075Z,90.32
2022-11-23T09:22:02.069Z,90.12
2022-11-23T09:23:02.073Z,89.70
2022-11-23T09:24:02.080Z,89.50
2022-11-23T09:25:02.084Z,90.12
2022-11-23T09:26:02.038Z,88.98
2022-11-23T09:27:02.012Z,89.09
2022-11-23T09:28:02.011Z,89.70
2022-11-23T09:29:02.030Z,89.97
2022-11-23T09:30:01.985Z,88.89
2022-11-23T09:31:01.975Z,89.50
2022-11-23T09:32:01.953Z,89.29
2022-11-23T09:33:01.949Z,88.98
2022-11-23T09:34:01.959Z,88.95
2022-11-23T09:35:01.964Z,88.74
2022-11-23T09:36:01.907Z,89.04
2022-11-23T09:37:01.910Z,88.43
2022-11-23T09:38:01.910Z,88.95
2022-11-23T09:39:01.894Z,88.23
2022-11-23T09:40:01.892Z,88.33
2022-11-23T09:41:01.912Z,88.95
2022-11-23T09:42:01.865Z,88.23
2022-11-23T09:43:01.826Z,88.39
2022-11-23T09:44:01.818Z,88.64
2022-11-23T09:45:01.841Z,87.98
2022-11-23T09:46:01.802Z,88.02
2022-11-23T09:47:01.838Z,88.08
2022-11-23T09:48:01.813Z,88.08
2022-11-23T09:49:01.769Z,87.88
2022-11-23T09:50:01.757Z,87.98
2022-11-23T09:51:01.749Z,87.57
2022-11-23T09:52:01.756Z,87.88
2022-11-23T09:53:01.717Z,88.14
2022-11-23T09:54:01.724Z,87.73
2022-11-23T09:55:01.697Z,87.53
2022-11-23T09:56:01.682Z,86.71
2022-11-23T09:57:02.303Z,87.32
2022-11-23T09:58:01.697Z,86.60
2022-11-23T09:59:01.652Z,86.46
2022-11-23T10:00:01.672Z,87.08
2022-11-23T10:01:01.654Z,86.36
2022-11-23T10:02:01.689Z,86.11
2022-11-23T10:03:01.600Z,86.42
2022-11-23T10:04:01.594Z,86.01
2022-11-23T10:05:01.627Z,86.11
2022-11-23T10:06:01.580Z,85.60
2022-11-23T10:07:01.583Z,84.78
2022-11-23T10:08:01.557Z,84.58
2022-11-23T10:09:01.545Z,85.30
2022-11-23T10:10:01.531Z,85.09
2022-11-23T10:11:01.517Z,85.30
2022-11-23T10:12:01.504Z,85.03
2022-11-23T10:13:01.508Z,85.33
2022-11-23T10:14:01.531Z,85.33
2022-11-23T10:15:01.469Z,84.88
2022-11-23T10:16:01.458Z,85.09
2022-11-23T10:17:01.456Z,85.19
2022-11-23T10:18:01.445Z,84.88
2022-11-23T10:19:01.439Z,85.50
2022-11-23T10:20:01.441Z,84.84
2022-11-23T10:21:01.409Z,84.78
2022-11-23T10:22:01.400Z,84.47
2022-11-23T10:23:01.383Z,84.27
2022-11-23T10:24:01.391Z,84.47
2022-11-23T10:25:01.381Z,84.37
2022-11-23T10:26:01.352Z,84.61
2022-11-23T10:27:01.343Z,84.31
2022-11-23T10:28:01.324Z,84.61
2022-11-23T10:29:01.352Z,85.03
2022-11-23T10:30:01.333Z,85.44
2022-11-23T10:31:01.309Z,84.52
2022-11-23T10:32:01.285Z,84.72
2022-11-23T10:33:01.271Z,84.92
2022-11-23T10:34:01.257Z,85.33
2022-11-23T10:35:01.255Z,85.13
2022-11-23T10:36:01.260Z,85.03
2022-11-23T10:37:01.233Z,85.03
2022-11-23T10:38:01.220Z,85.03
2022-11-23T10:39:01.203Z,85.33
2022-11-23T10:40:01.227Z,85.03
2022-11-23T10:41:01.206Z,85.03
2022-11-23T10:42:01.183Z,85.44
2022-11-23T10:43:01.164Z,84.92
2022-11-23T10:44:01.168Z,84.92
2022-11-23T10:45:01.181Z,85.33
2022-11-23T10:46:01.143Z,84.68
2022-11-23T10:47:01.126Z,85.09
2022-11-23T10:48:01.121Z,84.68
2022-11-23T10:49:01.096Z,84.58
2022-11-23T10:50:01.211Z,84.68
2022-11-23T10:51:01.070Z,84.44
2022-11-23T10:52:01.070Z,83.41
2022-11-23T10:53:01.071Z,83.68
2022-11-23T10:54:05.129Z,82.04
2022-11-23T10:55:01.023Z,82.86
2022-11-23T10:56:01.045Z,81.43
2022-11-23T10:57:01.195Z,82.10
2022-11-23T10:58:00.997Z,82.00
2022-11-23T10:59:00.994Z,81.90
2022-11-23T11:00:01.023Z,82.07
2022-11-23T11:01:00.983Z,82.23
2022-11-23T11:02:01.098Z,81.58
2022-11-23T11:03:00.973Z,80.97
2022-11-23T11:04:00.968Z,79.84
2022-11-23T11:05:00.921Z,80.15
2022-11-23T11:06:09.931Z,79.64
2022-11-23T11:07:01.896Z,79.23
2022-11-23T11:08:00.887Z,79.47
2022-11-23T11:09:03.474Z,80.02
2022-11-23T11:10:00.893Z,80.26
2022-11-23T11:11:00.847Z,81.01
2022-11-23T11:12:00.833Z,81.52
2022-11-23T11:13:00.826Z,81.73
2022-11-23T11:14:00.834Z,82.39
2022-11-23T11:15:10.402Z,83.00
2022-11-23T11:16:01.795Z,82.83
2022-11-23T11:17:00.812Z,82.79
2022-11-23T11:18:00.813Z,83.00
2022-11-23T11:19:00.758Z,83.00
2022-11-23T11:20:00.766Z,82.90
2022-11-23T11:21:00.775Z,83.17
2022-11-23T11:22:00.739Z,82.86
2022-11-23T11:23:00.751Z,82.04
2022-11-23T11:24:00.700Z,81.73
2022-11-23T11:25:00.720Z,82.51
2022-11-23T11:26:00.683Z,81.59
2022-11-23T11:27:00.691Z,81.38
2022-11-23T11:28:00.665Z,81.18
2022-11-23T11:29:00.671Z,82.48
2022-11-23T11:30:00.634Z,81.96
2022-11-23T11:31:00.626Z,81.24
2022-11-23T11:32:00.615Z,80.74
2022-11-23T11:33:00.637Z,80.22
2022-11-23T11:34:00.642Z,80.43
2022-11-23T11:35:00.583Z,80.12
2022-11-23T11:36:00.576Z,81.04
2022-11-23T11:37:00.573Z,81.65
2022-11-23T11:38:00.549Z,80.74
2022-11-23T11:39:17.944Z,80.12
2022-11-23T11:40:01.548Z,79.50
2022-11-23T11:41:00.514Z,79.85
2022-11-23T11:42:00.506Z,80.77
2022-11-23T11:43:00.511Z,79.82
2022-11-23T11:44:00.485Z,80.16
2022-11-23T11:45:00.496Z,79.82
2022-11-23T11:46:27.562Z,80.80
2022-11-23T11:47:01.451Z,79.71
2022-11-23T11:48:00.470Z,80.25
2022-11-23T11:49:00.429Z,79.74
2022-11-23T11:50:00.446Z,79.02
2022-11-23T11:51:00.413Z,79.02
2022-11-23T11:52:00.432Z,78.07
2022-11-23T11:53:00.435Z,78.00
2022-11-23T11:54:00.404Z,77.39
2022-11-23T11:55:00.423Z,77.73
2022-11-23T11:56:00.346Z,77.83
2022-11-23T11:57:00.334Z,78.69
2022-11-23T11:58:00.333Z,79.00
2022-11-23T11:59:00.340Z,79.30
2022-11-23T12:00:00.313Z,79.10
2022-11-23T12:01:00.289Z,78.55
2022-11-23T12:02:00.283Z,79.27
2022-11-23T12:03:00.359Z,78.28
2022-11-23T12:04:00.296Z,79.00
2022-11-23T12:05:00.254Z,78.69
2022-11-23T12:06:00.282Z,79.47
2022-11-23T12:07:00.239Z,79.88
2022-11-23T12:08:00.247Z,79.37
2022-11-23T12:09:00.208Z,78.89
2022-11-23T12:10:00.192Z,79.20
2022-11-23T12:11:00.177Z,79.41
2022-11-23T12:12:00.170Z,79.00
2022-11-23T12:13:00.177Z,78.59
2022-11-23T12:14:00.160Z,79.41
2022-11-23T12:15:00.140Z,79.82
2022-11-23T12:16:00.157Z,79.50
2022-11-23T12:17:30.816Z,79.41
2022-11-23T12:18:01.127Z,79.10
2022-11-23T12:19:00.109Z,79.30
2022-11-23T12:20:00.085Z,79.71
2022-11-23T12:21:00.076Z,79.10
2022-11-23T12:22:00.185Z,78.79
2022-11-23T12:23:00.076Z,78.79
2022-11-23T12:24:00.039Z,79.00
2022-11-23T12:25:00.030Z,79.71
2022-11-23T12:26:00.016Z,79.00
2022-11-23T12:27:00.023Z,79.00
2022-11-23T12:27:59.991Z,79.03
2022-11-23T12:28:59.985Z,79.96
2022-11-23T12:29:59.971Z,79.03
2022-11-23T12:30:59.982Z,79.85
2022-11-23T12:31:59.951Z,80.46
2022-11-23T12:32:59.931Z,79.85
2022-11-23T12:33:59.935Z,79.44
2022-11-23T12:34:59.947Z,80.05
2022-11-23T12:35:59.927Z,80.26
2022-11-23T12:36:59.903Z,81.12
2022-11-23T12:37:59.916Z,80.60
2022-11-23T12:38:59.868Z,80.40
2022-11-23T12:39:59.875Z,80.30
2022-11-23T12:40:59.869Z,80.51
2022-11-23T12:41:59.840Z,81.01
2022-11-23T12:42:59.819Z,81.01
2022-11-23T12:43:59.810Z,80.74
2022-11-23T12:44:59.804Z,81.15
2022-11-23T12:45:59.818Z,81.52
2022-11-23T12:46:59.778Z,81.46
2022-11-23T12:47:59.778Z,81.46
2022-11-23T12:48:59.755Z,81.46
2022-11-23T12:49:59.747Z,82.18
2022-11-23T12:50:59.751Z,82.18
2022-11-23T12:51:59.755Z,82.55
2022-11-23T12:52:59.720Z,82.69